sensor_id;sensor_type;location;lat;lon;timestamp;temperature;humidity
32139;DHT22;18644;48.700;9.210;2024-03-29T00:00:36;6.50;56.20
32139;DHT22;18644;48.700;9.210;2024-03-29T00:03:03;6.50;56.50
32139;DHT22;18644;48.700;9.210;2024-03-29T00:05:29;6.50;56.60
32139;DHT22;18644;48.700;9.210;2024-03-29T00:07:55;6.50;56.60
32139;DHT22;18644;48.700;9.210;2024-03-29T00:10:21;6.50;56.70
32139;DHT22;18644;48.700;9.210;2024-03-29T00:12:49;6.60;56.90
32139;DHT22;18644;48.700;9.210;2024-03-29T00:15:15;6.60;57.00
32139;DHT22;18644;48.700;9.210;2024-03-29T00:17:41;6.60;57.10
32139;DHT22;18644;48.700;9.210;2024-03-29T00:20:07;6.60;57.10
32139;DHT22;18644;48.700;9.210;2024-03-29T00:22:34;6.60;57.00
32139;DHT22;18644;48.700;9.210;2024-03-29T00:25:00;6.60;56.90
32139;DHT22;18644;48.700;9.210;2024-03-29T00:27:26;6.60;56.90
32139;DHT22;18644;48.700;9.210;2024-03-29T00:29:54;6.60;56.90
32139;DHT22;18644;48.700;9.210;2024-03-29T00:32:20;6.70;57.00
32139;DHT22;18644;48.700;9.210;2024-03-29T00:34:49;6.70;57.00
32139;DHT22;18644;48.700;9.210;2024-03-29T00:37:16;6.70;56.90
32139;DHT22;18644;48.700;9.210;2024-03-29T00:39:42;6.70;56.90
32139;DHT22;18644;48.700;9.210;2024-03-29T00:42:08;6.70;56.90
32139;DHT22;18644;48.700;9.210;2024-03-29T00:44:34;6.70;57.00
32139;DHT22;18644;48.700;9.210;2024-03-29T00:47:02;6.70;57.10
32139;DHT22;18644;48.700;9.210;2024-03-29T00:49:28;6.70;57.20
32139;DHT22;18644;48.700;9.210;2024-03-29T00:51:54;6.80;57.30
32139;DHT22;18644;48.700;9.210;2024-03-29T00:54:20;6.80;57.30
32139;DHT22;18644;48.700;9.210;2024-03-29T00:56:46;6.80;57.20
32139;DHT22;18644;48.700;9.210;2024-03-29T00:59:12;6.80;57.20
32139;DHT22;18644;48.700;9.210;2024-03-29T01:01:38;6.80;57.40
32139;DHT22;18644;48.700;9.210;2024-03-29T01:04:05;6.90;57.50
32139;DHT22;18644;48.700;9.210;2024-03-29T01:06:31;6.90;57.60
32139;DHT22;18644;48.700;9.210;2024-03-29T01:08:57;6.90;57.60
32139;DHT22;18644;48.700;9.210;2024-03-29T01:11:23;6.90;57.70
32139;DHT22;18644;48.700;9.210;2024-03-29T01:13:50;7.00;57.80
32139;DHT22;18644;48.700;9.210;2024-03-29T01:16:16;7.00;57.80
32139;DHT22;18644;48.700;9.210;2024-03-29T01:18:42;7.00;57.90
32139;DHT22;18644;48.700;9.210;2024-03-29T01:21:09;7.00;58.00
32139;DHT22;18644;48.700;9.210;2024-03-29T01:23:35;7.00;58.00
32139;DHT22;18644;48.700;9.210;2024-03-29T01:26:01;7.00;57.90
32139;DHT22;18644;48.700;9.210;2024-03-29T01:28:27;7.00;57.90
32139;DHT22;18644;48.700;9.210;2024-03-29T01:30:54;7.00;57.80
32139;DHT22;18644;48.700;9.210;2024-03-29T01:33:20;7.00;57.80
32139;DHT22;18644;48.700;9.210;2024-03-29T01:35:47;7.10;57.70
32139;DHT22;18644;48.700;9.210;2024-03-29T01:38:14;7.00;57.70
32139;DHT22;18644;48.700;9.210;2024-03-29T01:40:41;7.00;57.60
32139;DHT22;18644;48.700;9.210;2024-03-29T01:43:07;7.00;57.50
32139;DHT22;18644;48.700;9.210;2024-03-29T01:45:35;7.00;57.60
32139;DHT22;18644;48.700;9.210;2024-03-29T01:48:03;7.00;57.60
32139;DHT22;18644;48.700;9.210;2024-03-29T01:50:31;7.00;57.60
32139;DHT22;18644;48.700;9.210;2024-03-29T01:52:59;7.00;57.60
32139;DHT22;18644;48.700;9.210;2024-03-29T01:55:27;7.00;57.70
32139;DHT22;18644;48.700;9.210;2024-03-29T01:57:54;6.90;58.20
32139;DHT22;18644;48.700;9.210;2024-03-29T02:00:23;6.90;57.70
32139;DHT22;18644;48.700;9.210;2024-03-29T02:02:49;7.00;57.80
32139;DHT22;18644;48.700;9.210;2024-03-29T02:05:16;6.90;57.90
32139;DHT22;18644;48.700;9.210;2024-03-29T02:07:44;7.00;57.90
32139;DHT22;18644;48.700;9.210;2024-03-29T02:10:13;7.00;58.00
32139;DHT22;18644;48.700;9.210;2024-03-29T02:12:41;7.00;58.00
32139;DHT22;18644;48.700;9.210;2024-03-29T02:15:08;7.00;58.10
32139;DHT22;18644;48.700;9.210;2024-03-29T02:17:35;7.00;58.10
32139;DHT22;18644;48.700;9.210;2024-03-29T02:20:02;7.00;58.20
32139;DHT22;18644;48.700;9.210;2024-03-29T02:22:31;7.00;58.30
32139;DHT22;18644;48.700;9.210;2024-03-29T02:24:59;7.00;58.40
32139;DHT22;18644;48.700;9.210;2024-03-29T02:27:27;7.00;58.50
32139;DHT22;18644;48.700;9.210;2024-03-29T02:30:13;7.10;58.60
32139;DHT22;18644;48.700;9.210;2024-03-29T02:32:40;7.10;58.80
32139;DHT22;18644;48.700;9.210;2024-03-29T02:35:07;7.10;58.70
32139;DHT22;18644;48.700;9.210;2024-03-29T02:37:35;7.10;58.70
32139;DHT22;18644;48.700;9.210;2024-03-29T02:40:04;7.10;58.70
32139;DHT22;18644;48.700;9.210;2024-03-29T02:42:32;7.10;58.50
32139;DHT22;18644;48.700;9.210;2024-03-29T02:44:58;7.10;58.50
32139;DHT22;18644;48.700;9.210;2024-03-29T02:47:25;7.10;58.40
32139;DHT22;18644;48.700;9.210;2024-03-29T02:49:52;7.20;58.60
32139;DHT22;18644;48.700;9.210;2024-03-29T02:52:18;7.20;58.70
32139;DHT22;18644;48.700;9.210;2024-03-29T02:54:45;7.20;58.70
32139;DHT22;18644;48.700;9.210;2024-03-29T02:57:12;7.20;58.70
32139;DHT22;18644;48.700;9.210;2024-03-29T02:59:39;7.20;58.70
32139;DHT22;18644;48.700;9.210;2024-03-29T03:02:05;7.20;58.80
32139;DHT22;18644;48.700;9.210;2024-03-29T03:04:32;7.20;58.80
32139;DHT22;18644;48.700;9.210;2024-03-29T03:06:58;7.20;58.80
32139;DHT22;18644;48.700;9.210;2024-03-29T03:09:45;7.30;58.80
32139;DHT22;18644;48.700;9.210;2024-03-29T03:12:31;7.30;59.40
32139;DHT22;18644;48.700;9.210;2024-03-29T03:14:58;7.30;58.80
32139;DHT22;18644;48.700;9.210;2024-03-29T03:17:25;7.30;58.80
32139;DHT22;18644;48.700;9.210;2024-03-29T03:19:51;7.40;59.00
32139;DHT22;18644;48.700;9.210;2024-03-29T03:22:18;7.40;59.00
32139;DHT22;18644;48.700;9.210;2024-03-29T03:24:45;7.40;59.20
32139;DHT22;18644;48.700;9.210;2024-03-29T03:27:11;7.50;59.30
32139;DHT22;18644;48.700;9.210;2024-03-29T03:29:39;7.50;59.30
32139;DHT22;18644;48.700;9.210;2024-03-29T03:32:06;7.50;59.20
32139;DHT22;18644;48.700;9.210;2024-03-29T03:34:32;7.50;59.10
32139;DHT22;18644;48.700;9.210;2024-03-29T03:37:00;7.50;59.00
32139;DHT22;18644;48.700;9.210;2024-03-29T03:39:26;7.60;59.00
32139;DHT22;18644;48.700;9.210;2024-03-29T03:41:52;7.60;59.00
32139;DHT22;18644;48.700;9.210;2024-03-29T03:44:18;7.60;59.10
32139;DHT22;18644;48.700;9.210;2024-03-29T03:46:48;7.60;59.30
32139;DHT22;18644;48.700;9.210;2024-03-29T03:49:14;7.70;59.40
32139;DHT22;18644;48.700;9.210;2024-03-29T03:51:41;7.70;59.40
32139;DHT22;18644;48.700;9.210;2024-03-29T03:54:07;7.70;59.20
32139;DHT22;18644;48.700;9.210;2024-03-29T03:56:34;7.80;59.20
32139;DHT22;18644;48.700;9.210;2024-03-29T03:59:00;7.80;59.00
32139;DHT22;18644;48.700;9.210;2024-03-29T04:01:27;7.90;59.10
32139;DHT22;18644;48.700;9.210;2024-03-29T04:03:54;7.90;59.00
32139;DHT22;18644;48.700;9.210;2024-03-29T04:06:21;8.00;58.80
32139;DHT22;18644;48.700;9.210;2024-03-29T04:08:47;8.10;58.70
32139;DHT22;18644;48.700;9.210;2024-03-29T04:11:14;8.20;58.70
32139;DHT22;18644;48.700;9.210;2024-03-29T04:13:42;8.20;58.60
32139;DHT22;18644;48.700;9.210;2024-03-29T04:16:12;8.30;58.50
32139;DHT22;18644;48.700;9.210;2024-03-29T04:18:38;8.40;58.40
32139;DHT22;18644;48.700;9.210;2024-03-29T04:21:06;8.40;58.10
32139;DHT22;18644;48.700;9.210;2024-03-29T04:23:32;8.50;58.00
32139;DHT22;18644;48.700;9.210;2024-03-29T04:25:59;8.60;58.10
32139;DHT22;18644;48.700;9.210;2024-03-29T04:28:26;8.60;57.90
32139;DHT22;18644;48.700;9.210;2024-03-29T04:30:53;8.70;58.50
32139;DHT22;18644;48.700;9.210;2024-03-29T04:33:20;8.80;58.20
32139;DHT22;18644;48.700;9.210;2024-03-29T04:35:53;8.80;58.20
32139;DHT22;18644;48.700;9.210;2024-03-29T04:38:21;8.80;58.20
32139;DHT22;18644;48.700;9.210;2024-03-29T04:40:48;8.80;58.10
32139;DHT22;18644;48.700;9.210;2024-03-29T04:43:15;8.90;58.10
32139;DHT22;18644;48.700;9.210;2024-03-29T04:45:43;8.90;58.90
32139;DHT22;18644;48.700;9.210;2024-03-29T04:48:10;8.90;58.50
32139;DHT22;18644;48.700;9.210;2024-03-29T04:50:38;9.00;58.60
32139;DHT22;18644;48.700;9.210;2024-03-29T04:53:05;9.00;58.50
32139;DHT22;18644;48.700;9.210;2024-03-29T04:55:34;9.00;58.30
32139;DHT22;18644;48.700;9.210;2024-03-29T04:58:01;9.00;58.30
32139;DHT22;18644;48.700;9.210;2024-03-29T05:00:28;9.00;58.00
32139;DHT22;18644;48.700;9.210;2024-03-29T05:02:55;9.10;58.00
32139;DHT22;18644;48.700;9.210;2024-03-29T05:05:22;9.10;57.90
32139;DHT22;18644;48.700;9.210;2024-03-29T05:07:49;9.10;57.70
32139;DHT22;18644;48.700;9.210;2024-03-29T05:10:16;9.20;57.80
32139;DHT22;18644;48.700;9.210;2024-03-29T05:12:45;9.20;57.60
32139;DHT22;18644;48.700;9.210;2024-03-29T05:15:12;9.30;57.60
32139;DHT22;18644;48.700;9.210;2024-03-29T05:17:39;9.30;57.60
32139;DHT22;18644;48.700;9.210;2024-03-29T05:20:09;9.30;57.80
32139;DHT22;18644;48.700;9.210;2024-03-29T05:22:37;9.30;58.00
32139;DHT22;18644;48.700;9.210;2024-03-29T05:25:04;9.40;58.10
32139;DHT22;18644;48.700;9.210;2024-03-29T05:27:33;9.40;58.20
32139;DHT22;18644;48.700;9.210;2024-03-29T05:30:01;9.40;58.20
32139;DHT22;18644;48.700;9.210;2024-03-29T05:32:28;9.40;58.10
32139;DHT22;18644;48.700;9.210;2024-03-29T05:34:55;9.40;57.90
32139;DHT22;18644;48.700;9.210;2024-03-29T05:37:22;9.40;57.80
32139;DHT22;18644;48.700;9.210;2024-03-29T05:39:50;9.40;57.80
32139;DHT22;18644;48.700;9.210;2024-03-29T05:42:24;9.40;57.90
32139;DHT22;18644;48.700;9.210;2024-03-29T05:44:52;9.50;58.00
32139;DHT22;18644;48.700;9.210;2024-03-29T05:47:20;9.50;58.10
32139;DHT22;18644;48.700;9.210;2024-03-29T05:49:47;9.50;58.30
32139;DHT22;18644;48.700;9.210;2024-03-29T05:52:14;9.50;58.50
32139;DHT22;18644;48.700;9.210;2024-03-29T05:54:41;9.60;58.60
32139;DHT22;18644;48.700;9.210;2024-03-29T05:57:08;9.60;58.60
32139;DHT22;18644;48.700;9.210;2024-03-29T05:59:36;9.60;58.60
32139;DHT22;18644;48.700;9.210;2024-03-29T06:02:03;9.60;58.60
32139;DHT22;18644;48.700;9.210;2024-03-29T06:04:32;9.60;58.70
32139;DHT22;18644;48.700;9.210;2024-03-29T06:06:58;9.70;58.70
32139;DHT22;18644;48.700;9.210;2024-03-29T06:09:25;9.70;58.50
32139;DHT22;18644;48.700;9.210;2024-03-29T06:11:53;9.80;58.30
32139;DHT22;18644;48.700;9.210;2024-03-29T06:14:20;9.80;58.40
32139;DHT22;18644;48.700;9.210;2024-03-29T06:17:05;9.90;58.10
32139;DHT22;18644;48.700;9.210;2024-03-29T06:19:52;10.00;57.90
32139;DHT22;18644;48.700;9.210;2024-03-29T06:22:21;10.10;57.70
32139;DHT22;18644;48.700;9.210;2024-03-29T06:24:49;10.20;57.50
32139;DHT22;18644;48.700;9.210;2024-03-29T06:27:17;10.30;57.60
32139;DHT22;18644;48.700;9.210;2024-03-29T06:29:46;10.40;57.60
32139;DHT22;18644;48.700;9.210;2024-03-29T06:32:13;10.50;57.80
32139;DHT22;18644;48.700;9.210;2024-03-29T06:34:41;10.60;57.90
32139;DHT22;18644;48.700;9.210;2024-03-29T06:37:09;10.60;57.40
32139;DHT22;18644;48.700;9.210;2024-03-29T06:39:36;10.70;56.90
32139;DHT22;18644;48.700;9.210;2024-03-29T06:42:04;10.80;56.70
32139;DHT22;18644;48.700;9.210;2024-03-29T06:44:32;10.90;56.50
32139;DHT22;18644;48.700;9.210;2024-03-29T06:46:59;11.00;56.30
32139;DHT22;18644;48.700;9.210;2024-03-29T06:49:26;11.10;56.00
32139;DHT22;18644;48.700;9.210;2024-03-29T06:51:53;11.20;56.10
32139;DHT22;18644;48.700;9.210;2024-03-29T06:54:22;11.30;56.20
32139;DHT22;18644;48.700;9.210;2024-03-29T06:56:52;11.40;56.30
32139;DHT22;18644;48.700;9.210;2024-03-29T06:59:19;11.50;56.20
32139;DHT22;18644;48.700;9.210;2024-03-29T07:01:46;11.60;55.80
32139;DHT22;18644;48.700;9.210;2024-03-29T07:04:13;11.70;56.20
32139;DHT22;18644;48.700;9.210;2024-03-29T07:06:40;11.70;55.40
32139;DHT22;18644;48.700;9.210;2024-03-29T07:09:08;11.80;55.60
32139;DHT22;18644;48.700;9.210;2024-03-29T07:11:36;11.90;55.70
32139;DHT22;18644;48.700;9.210;2024-03-29T07:14:03;11.90;55.50
32139;DHT22;18644;48.700;9.210;2024-03-29T07:16:31;12.00;55.40
32139;DHT22;18644;48.700;9.210;2024-03-29T07:18:57;12.00;55.10
32139;DHT22;18644;48.700;9.210;2024-03-29T07:21:25;12.10;54.90
32139;DHT22;18644;48.700;9.210;2024-03-29T07:23:51;12.10;54.70
32139;DHT22;18644;48.700;9.210;2024-03-29T07:26:18;12.10;54.80
32139;DHT22;18644;48.700;9.210;2024-03-29T07:28:47;12.10;54.80
32139;DHT22;18644;48.700;9.210;2024-03-29T07:31:13;12.10;55.00
32139;DHT22;18644;48.700;9.210;2024-03-29T07:33:40;12.10;55.10
32139;DHT22;18644;48.700;9.210;2024-03-29T07:36:07;12.10;55.60
32139;DHT22;18644;48.700;9.210;2024-03-29T07:38:36;12.10;55.80
32139;DHT22;18644;48.700;9.210;2024-03-29T07:41:03;12.10;56.00
32139;DHT22;18644;48.700;9.210;2024-03-29T07:43:38;12.10;55.80
32139;DHT22;18644;48.700;9.210;2024-03-29T07:46:07;12.10;55.80
32139;DHT22;18644;48.700;9.210;2024-03-29T07:48:35;12.00;56.10
32139;DHT22;18644;48.700;9.210;2024-03-29T07:51:02;12.00;56.70
32139;DHT22;18644;48.700;9.210;2024-03-29T07:53:29;12.10;57.10
32139;DHT22;18644;48.700;9.210;2024-03-29T07:55:56;12.10;57.50
32139;DHT22;18644;48.700;9.210;2024-03-29T07:58:23;12.10;57.50
32139;DHT22;18644;48.700;9.210;2024-03-29T08:00:51;12.10;57.50
32139;DHT22;18644;48.700;9.210;2024-03-29T08:03:20;12.10;57.60
32139;DHT22;18644;48.700;9.210;2024-03-29T08:05:56;12.10;57.60
32139;DHT22;18644;48.700;9.210;2024-03-29T08:08:23;12.10;57.80
32139;DHT22;18644;48.700;9.210;2024-03-29T08:10:53;12.10;57.70
32139;DHT22;18644;48.700;9.210;2024-03-29T08:13:20;12.20;57.60
32139;DHT22;18644;48.700;9.210;2024-03-29T08:15:48;12.20;57.40
32139;DHT22;18644;48.700;9.210;2024-03-29T08:18:15;12.20;57.50
32139;DHT22;18644;48.700;9.210;2024-03-29T08:20:45;12.20;57.40
32139;DHT22;18644;48.700;9.210;2024-03-29T08:23:12;12.30;57.60
32139;DHT22;18644;48.700;9.210;2024-03-29T08:25:39;12.30;57.40
32139;DHT22;18644;48.700;9.210;2024-03-29T08:28:07;12.30;58.10
32139;DHT22;18644;48.700;9.210;2024-03-29T08:30:34;12.30;57.70
32139;DHT22;18644;48.700;9.210;2024-03-29T08:33:03;12.30;57.80
32139;DHT22;18644;48.700;9.210;2024-03-29T08:35:31;12.30;58.00
32139;DHT22;18644;48.700;9.210;2024-03-29T08:38:01;12.30;58.40
32139;DHT22;18644;48.700;9.210;2024-03-29T08:40:29;12.30;58.80
32139;DHT22;18644;48.700;9.210;2024-03-29T08:42:59;12.30;58.80
32139;DHT22;18644;48.700;9.210;2024-03-29T08:45:27;12.30;59.00
32139;DHT22;18644;48.700;9.210;2024-03-29T08:47:54;12.30;59.30
32139;DHT22;18644;48.700;9.210;2024-03-29T08:50:21;12.40;59.50
32139;DHT22;18644;48.700;9.210;2024-03-29T08:52:47;12.40;59.40
32139;DHT22;18644;48.700;9.210;2024-03-29T08:55:16;12.40;59.40
32139;DHT22;18644;48.700;9.210;2024-03-29T08:57:43;12.50;59.40
32139;DHT22;18644;48.700;9.210;2024-03-29T09:00:11;12.50;59.40
32139;DHT22;18644;48.700;9.210;2024-03-29T09:02:38;12.50;59.50
32139;DHT22;18644;48.700;9.210;2024-03-29T09:05:06;12.50;59.30
32139;DHT22;18644;48.700;9.210;2024-03-29T09:07:33;12.50;59.50
32139;DHT22;18644;48.700;9.210;2024-03-29T09:10:00;12.50;59.50
32139;DHT22;18644;48.700;9.210;2024-03-29T09:12:30;12.50;59.40
32139;DHT22;18644;48.700;9.210;2024-03-29T09:14:57;12.50;59.60
32139;DHT22;18644;48.700;9.210;2024-03-29T09:17:24;12.50;59.70
32139;DHT22;18644;48.700;9.210;2024-03-29T09:19:52;12.60;60.00
32139;DHT22;18644;48.700;9.210;2024-03-29T09:22:19;12.60;60.50
32139;DHT22;18644;48.700;9.210;2024-03-29T09:24:45;12.70;60.80
32139;DHT22;18644;48.700;9.210;2024-03-29T09:27:12;12.80;60.60
32139;DHT22;18644;48.700;9.210;2024-03-29T09:29:41;12.80;60.40
32139;DHT22;18644;48.700;9.210;2024-03-29T09:32:08;12.90;60.30
32139;DHT22;18644;48.700;9.210;2024-03-29T09:34:35;12.90;60.60
32139;DHT22;18644;48.700;9.210;2024-03-29T09:37:02;13.00;60.80
32139;DHT22;18644;48.700;9.210;2024-03-29T09:39:30;13.10;61.00
32139;DHT22;18644;48.700;9.210;2024-03-29T09:41:58;13.20;61.10
32139;DHT22;18644;48.700;9.210;2024-03-29T09:44:32;13.20;61.20
32139;DHT22;18644;48.700;9.210;2024-03-29T09:47:03;13.30;61.10
32139;DHT22;18644;48.700;9.210;2024-03-29T09:49:31;13.30;61.80
32139;DHT22;18644;48.700;9.210;2024-03-29T09:51:59;13.40;61.20
32139;DHT22;18644;48.700;9.210;2024-03-29T09:54:27;13.50;61.60
32139;DHT22;18644;48.700;9.210;2024-03-29T09:56:55;13.50;61.60
32139;DHT22;18644;48.700;9.210;2024-03-29T09:59:23;13.60;61.60
32139;DHT22;18644;48.700;9.210;2024-03-29T10:01:53;13.80;61.50
32139;DHT22;18644;48.700;9.210;2024-03-29T10:04:24;13.80;61.30
32139;DHT22;18644;48.700;9.210;2024-03-29T10:06:51;14.00;61.30
32139;DHT22;18644;48.700;9.210;2024-03-29T10:09:19;14.10;61.20
32139;DHT22;18644;48.700;9.210;2024-03-29T10:11:47;14.20;61.20
32139;DHT22;18644;48.700;9.210;2024-03-29T10:14:14;14.30;60.60
32139;DHT22;18644;48.700;9.210;2024-03-29T10:16:42;14.40;60.20
32139;DHT22;18644;48.700;9.210;2024-03-29T10:19:12;14.50;59.90
32139;DHT22;18644;48.700;9.210;2024-03-29T10:21:40;14.60;59.90
32139;DHT22;18644;48.700;9.210;2024-03-29T10:24:13;14.70;60.00
32139;DHT22;18644;48.700;9.210;2024-03-29T10:26:40;14.80;60.20
32139;DHT22;18644;48.700;9.210;2024-03-29T10:29:08;15.00;60.40
32139;DHT22;18644;48.700;9.210;2024-03-29T10:31:35;15.20;60.70
32139;DHT22;18644;48.700;9.210;2024-03-29T10:34:03;15.40;60.10
32139;DHT22;18644;48.700;9.210;2024-03-29T10:36:31;15.60;59.60
32139;DHT22;18644;48.700;9.210;2024-03-29T10:39:02;15.70;59.10
32139;DHT22;18644;48.700;9.210;2024-03-29T10:41:38;15.80;58.70
32139;DHT22;18644;48.700;9.210;2024-03-29T10:44:10;15.90;58.50
32139;DHT22;18644;48.700;9.210;2024-03-29T10:46:38;16.00;58.60
32139;DHT22;18644;48.700;9.210;2024-03-29T10:49:07;16.10;58.20
32139;DHT22;18644;48.700;9.210;2024-03-29T10:51:38;16.20;58.30
32139;DHT22;18644;48.700;9.210;2024-03-29T10:54:08;16.40;58.20
32139;DHT22;18644;48.700;9.210;2024-03-29T10:56:36;16.50;58.00
32139;DHT22;18644;48.700;9.210;2024-03-29T10:59:09;16.60;57.50
32139;DHT22;18644;48.700;9.210;2024-03-29T11:01:41;16.60;56.90
32139;DHT22;18644;48.700;9.210;2024-03-29T11:04:12;16.70;56.60
32139;DHT22;18644;48.700;9.210;2024-03-29T11:06:42;16.80;56.40
32139;DHT22;18644;48.700;9.210;2024-03-29T11:09:15;16.80;56.40
32139;DHT22;18644;48.700;9.210;2024-03-29T11:11:46;16.90;56.30
32139;DHT22;18644;48.700;9.210;2024-03-29T11:14:18;16.90;56.20
32139;DHT22;18644;48.700;9.210;2024-03-29T11:16:46;17.00;56.20
32139;DHT22;18644;48.700;9.210;2024-03-29T11:19:16;17.10;56.50
32139;DHT22;18644;48.700;9.210;2024-03-29T11:21:44;17.10;56.80
32139;DHT22;18644;48.700;9.210;2024-03-29T11:24:16;17.20;56.40
32139;DHT22;18644;48.700;9.210;2024-03-29T11:26:45;17.30;55.70
32139;DHT22;18644;48.700;9.210;2024-03-29T11:29:19;17.40;55.40
32139;DHT22;18644;48.700;9.210;2024-03-29T11:31:46;17.40;55.30
32139;DHT22;18644;48.700;9.210;2024-03-29T11:34:19;17.50;55.50
32139;DHT22;18644;48.700;9.210;2024-03-29T11:36:46;17.60;55.30
32139;DHT22;18644;48.700;9.210;2024-03-29T11:39:22;17.60;54.90
32139;DHT22;18644;48.700;9.210;2024-03-29T11:41:49;17.70;54.50
32139;DHT22;18644;48.700;9.210;2024-03-29T11:44:16;17.70;54.40
32139;DHT22;18644;48.700;9.210;2024-03-29T11:46:43;17.80;54.20
32139;DHT22;18644;48.700;9.210;2024-03-29T11:49:10;17.80;54.00
32139;DHT22;18644;48.700;9.210;2024-03-29T11:51:37;17.80;54.10
32139;DHT22;18644;48.700;9.210;2024-03-29T11:54:04;17.90;54.20
32139;DHT22;18644;48.700;9.210;2024-03-29T11:56:32;17.90;53.90
32139;DHT22;18644;48.700;9.210;2024-03-29T11:58:59;17.90;53.90
32139;DHT22;18644;48.700;9.210;2024-03-29T12:01:26;17.90;54.00
32139;DHT22;18644;48.700;9.210;2024-03-29T12:03:54;17.90;54.10
32139;DHT22;18644;48.700;9.210;2024-03-29T12:06:21;18.00;54.00
32139;DHT22;18644;48.700;9.210;2024-03-29T12:08:50;18.00;53.80
32139;DHT22;18644;48.700;9.210;2024-03-29T12:11:18;18.00;53.50
32139;DHT22;18644;48.700;9.210;2024-03-29T12:13:47;18.10;53.90
32139;DHT22;18644;48.700;9.210;2024-03-29T12:16:14;18.10;54.10
32139;DHT22;18644;48.700;9.210;2024-03-29T12:18:41;18.20;54.50
32139;DHT22;18644;48.700;9.210;2024-03-29T12:21:14;18.30;54.60
32139;DHT22;18644;48.700;9.210;2024-03-29T12:23:47;18.40;54.50
32139;DHT22;18644;48.700;9.210;2024-03-29T12:26:15;18.60;54.20
32139;DHT22;18644;48.700;9.210;2024-03-29T12:28:49;18.70;54.00
32139;DHT22;18644;48.700;9.210;2024-03-29T12:31:16;18.80;54.00
32139;DHT22;18644;48.700;9.210;2024-03-29T12:33:51;18.90;53.60
32139;DHT22;18644;48.700;9.210;2024-03-29T12:36:18;19.00;53.00
32139;DHT22;18644;48.700;9.210;2024-03-29T12:38:54;19.10;53.20
32139;DHT22;18644;48.700;9.210;2024-03-29T12:41:23;19.20;53.20
32139;DHT22;18644;48.700;9.210;2024-03-29T12:43:52;19.40;53.40
32139;DHT22;18644;48.700;9.210;2024-03-29T12:46:19;19.50;53.50
32139;DHT22;18644;48.700;9.210;2024-03-29T12:48:45;19.70;53.70
32139;DHT22;18644;48.700;9.210;2024-03-29T12:51:13;19.80;53.40
32139;DHT22;18644;48.700;9.210;2024-03-29T12:53:44;20.00;53.20
32139;DHT22;18644;48.700;9.210;2024-03-29T12:56:11;20.20;53.10
32139;DHT22;18644;48.700;9.210;2024-03-29T12:58:38;20.40;52.50
32139;DHT22;18644;48.700;9.210;2024-03-29T13:01:07;20.50;51.90
32139;DHT22;18644;48.700;9.210;2024-03-29T13:03:35;20.60;51.70
32139;DHT22;18644;48.700;9.210;2024-03-29T13:06:03;20.70;51.50
32139;DHT22;18644;48.700;9.210;2024-03-29T13:08:30;20.80;51.30
32139;DHT22;18644;48.700;9.210;2024-03-29T13:10:57;20.90;51.40
32139;DHT22;18644;48.700;9.210;2024-03-29T13:13:24;21.10;51.60
32139;DHT22;18644;48.700;9.210;2024-03-29T13:15:51;21.30;51.00
32139;DHT22;18644;48.700;9.210;2024-03-29T13:18:19;21.40;50.60
32139;DHT22;18644;48.700;9.210;2024-03-29T13:20:46;21.50;50.50
32139;DHT22;18644;48.700;9.210;2024-03-29T13:23:13;21.60;50.10
32139;DHT22;18644;48.700;9.210;2024-03-29T13:25:41;21.70;49.20
32139;DHT22;18644;48.700;9.210;2024-03-29T13:28:08;21.80;48.50
32139;DHT22;18644;48.700;9.210;2024-03-29T13:30:36;21.80;48.80
32139;DHT22;18644;48.700;9.210;2024-03-29T13:33:08;21.80;48.80
32139;DHT22;18644;48.700;9.210;2024-03-29T13:35:36;21.80;49.10
32139;DHT22;18644;48.700;9.210;2024-03-29T13:38:04;21.80;49.10
32139;DHT22;18644;48.700;9.210;2024-03-29T13:40:31;21.90;49.10
32139;DHT22;18644;48.700;9.210;2024-03-29T13:42:59;22.00;49.20
32139;DHT22;18644;48.700;9.210;2024-03-29T13:45:26;22.10;48.90
32139;DHT22;18644;48.700;9.210;2024-03-29T13:47:53;22.30;48.70
32139;DHT22;18644;48.700;9.210;2024-03-29T13:50:20;22.40;48.50
32139;DHT22;18644;48.700;9.210;2024-03-29T13:52:49;22.50;48.30
32139;DHT22;18644;48.700;9.210;2024-03-29T13:55:17;22.60;48.20
32139;DHT22;18644;48.700;9.210;2024-03-29T13:57:44;22.70;48.80
32139;DHT22;18644;48.700;9.210;2024-03-29T14:00:12;22.80;48.10
32139;DHT22;18644;48.700;9.210;2024-03-29T14:02:42;23.00;47.50
32139;DHT22;18644;48.700;9.210;2024-03-29T14:05:09;23.10;47.00
32139;DHT22;18644;48.700;9.210;2024-03-29T14:07:36;23.10;46.60
32139;DHT22;18644;48.700;9.210;2024-03-29T14:10:05;23.20;46.50
32139;DHT22;18644;48.700;9.210;2024-03-29T14:12:33;23.20;46.10
32139;DHT22;18644;48.700;9.210;2024-03-29T14:15:00;23.30;45.60
32139;DHT22;18644;48.700;9.210;2024-03-29T14:17:28;23.30;45.50
32139;DHT22;18644;48.700;9.210;2024-03-29T14:19:55;23.30;45.10
32139;DHT22;18644;48.700;9.210;2024-03-29T14:22:22;23.30;45.10
32139;DHT22;18644;48.700;9.210;2024-03-29T14:24:50;23.30;45.10
32139;DHT22;18644;48.700;9.210;2024-03-29T14:27:18;23.30;45.40
32139;DHT22;18644;48.700;9.210;2024-03-29T14:29:45;23.30;45.30
32139;DHT22;18644;48.700;9.210;2024-03-29T14:32:12;23.40;45.60
32139;DHT22;18644;48.700;9.210;2024-03-29T14:34:39;23.40;45.40
32139;DHT22;18644;48.700;9.210;2024-03-29T14:37:11;23.50;45.10
32139;DHT22;18644;48.700;9.210;2024-03-29T14:39:41;23.60;44.70
32139;DHT22;18644;48.700;9.210;2024-03-29T14:42:10;23.60;44.90
32139;DHT22;18644;48.700;9.210;2024-03-29T14:44:40;23.70;44.80
32139;DHT22;18644;48.700;9.210;2024-03-29T14:47:07;23.80;44.30
32139;DHT22;18644;48.700;9.210;2024-03-29T14:49:34;23.80;44.00
32139;DHT22;18644;48.700;9.210;2024-03-29T14:52:01;23.80;44.20
32139;DHT22;18644;48.700;9.210;2024-03-29T14:54:28;23.90;43.70
32139;DHT22;18644;48.700;9.210;2024-03-29T14:56:54;23.80;43.30
32139;DHT22;18644;48.700;9.210;2024-03-29T14:59:21;23.80;43.30
32139;DHT22;18644;48.700;9.210;2024-03-29T15:01:49;23.80;43.00
32139;DHT22;18644;48.700;9.210;2024-03-29T15:04:16;23.70;42.90
32139;DHT22;18644;48.700;9.210;2024-03-29T15:06:43;23.60;42.60
32139;DHT22;18644;48.700;9.210;2024-03-29T15:09:11;23.50;42.20
32139;DHT22;18644;48.700;9.210;2024-03-29T15:11:39;23.40;42.80
32139;DHT22;18644;48.700;9.210;2024-03-29T15:14:05;23.30;43.40
32139;DHT22;18644;48.700;9.210;2024-03-29T15:16:35;23.30;43.50
32139;DHT22;18644;48.700;9.210;2024-03-29T15:19:04;23.30;43.80
32139;DHT22;18644;48.700;9.210;2024-03-29T15:21:30;23.30;43.70
32139;DHT22;18644;48.700;9.210;2024-03-29T15:23:57;23.30;43.80
32139;DHT22;18644;48.700;9.210;2024-03-29T15:26:24;23.30;43.60
32139;DHT22;18644;48.700;9.210;2024-03-29T15:28:52;23.30;43.20
32139;DHT22;18644;48.700;9.210;2024-03-29T15:31:34;23.30;43.10
32139;DHT22;18644;48.700;9.210;2024-03-29T15:34:03;23.30;43.30
32139;DHT22;18644;48.700;9.210;2024-03-29T15:36:31;23.20;42.90
32139;DHT22;18644;48.700;9.210;2024-03-29T15:38:58;23.20;42.80
32139;DHT22;18644;48.700;9.210;2024-03-29T15:41:31;23.10;42.50